Cloverdale, Vermont
Current Conditions -  °F | °C
As of 3:54 PM on Tuesday 25 Nov 2014 (Local Time) from KBTV Reporting Station
Broken Clouds Broken Clouds  
Wind Chill:   Ceiling: 6000
Heat Index:   Visibility: 10mi
Dew Point: -4°   Wind: 12mph
Humidity: 41%   Direction: 230°SW
Pressure: 29.93"   Gusts: 23mph
Location:  44.6543°N, 72.8545°W
Report Text: KBTV 252054Z 23010G20KT 10SM BKN060 BKN100 08/M04 A2993 RMK AO2 SLP138 T00831044 53027
Loading
Personal Weather Stations






























Interactive Weather Map New forecast layout! Learn more

10-Day Weather Forecast

Advertisements
Track Severe Weather on mobile